createdAt,value
2023-02-04T00:01:56.198Z,98035.12
2023-02-04T00:05:09.021Z,98037.53
2023-02-04T00:08:22.148Z,98026.00
2023-02-04T00:11:34.338Z,98029.34
2023-02-04T00:14:46.370Z,98028.98
2023-02-04T00:17:58.477Z,98013.16
2023-02-04T00:21:10.985Z,98025.91
2023-02-04T00:24:23.276Z,98020.33
2023-02-04T00:27:35.229Z,98025.24
2023-02-04T00:30:47.385Z,98015.35
2023-02-04T00:33:59.909Z,98019.54
2023-02-04T00:37:12.389Z,98019.42
2023-02-04T00:40:24.838Z,98021.92
2023-02-04T00:43:38.263Z,98012.16
2023-02-04T00:46:50.452Z,98015.62
2023-02-04T00:50:02.398Z,98010.49
2023-02-04T00:53:14.709Z,98005.25
2023-02-04T00:56:26.836Z,98006.06
2023-02-04T00:59:38.879Z,98005.25
2023-02-04T01:02:50.986Z,98010.38
2023-02-04T01:06:03.244Z,98010.49
2023-02-04T01:09:18.280Z,98003.44
2023-02-04T01:12:31.032Z,98001.66
2023-02-04T01:15:43.482Z,97994.76
2023-02-04T01:18:58.616Z,97989.52
2023-02-04T01:22:10.539Z,97990.23
2023-02-04T01:25:22.826Z,97986.77
2023-02-04T01:28:35.141Z,97983.30
2023-02-04T01:31:47.231Z,97978.05
2023-02-04T01:34:59.235Z,97989.98
2023-02-04T01:38:11.283Z,97982.12
2023-02-04T01:41:23.995Z,97984.74
2023-02-04T01:44:36.396Z,97964.81
2023-02-04T01:47:49.328Z,97975.22
2023-02-04T01:51:09.884Z,97973.53
2023-02-04T01:54:22.515Z,97975.22
2023-02-04T01:57:35.755Z,97960.66
2023-02-04T02:00:48.161Z,97962.19
2023-02-04T02:04:00.195Z,97966.50
2023-02-04T02:07:13.485Z,97966.38
2023-02-04T02:10:26.977Z,97971.63
2023-02-04T02:13:38.914Z,97973.31
2023-02-04T02:16:51.143Z,97976.66
2023-02-04T02:20:03.982Z,97981.91
2023-02-04T02:23:22.914Z,97980.94
2023-02-04T02:26:35.134Z,97980.22
2023-02-04T02:29:48.946Z,97978.56
2023-02-04T02:33:01.290Z,97994.30
2023-02-04T02:36:14.651Z,97991.67
2023-02-04T02:39:27.268Z,98009.41
2023-02-04T02:42:39.774Z,98000.94
2023-02-04T02:45:52.728Z,98008.80
2023-02-04T02:49:05.689Z,98010.95
2023-02-04T02:52:19.891Z,98019.30
2023-02-04T02:55:34.421Z,98021.20
2023-02-04T02:58:48.126Z,98012.13
2023-02-04T03:02:05.424Z,98008.88
2023-02-04T03:05:19.085Z,98027.59
2023-02-04T03:08:31.644Z,98024.73
2023-02-04T03:11:43.949Z,98025.91
2023-02-04T03:14:56.344Z,98037.84
2023-02-04T03:18:08.655Z,98038.93
2023-02-04T03:21:21.489Z,98045.83
2023-02-04T03:24:34.450Z,98053.58
2023-02-04T03:27:46.768Z,98061.44
2023-02-04T03:30:59.326Z,98063.25
2023-02-04T03:34:11.930Z,98073.73
2023-02-04T03:37:23.885Z,98077.41
2023-02-04T03:40:35.787Z,98084.67
2023-02-04T03:43:47.743Z,98101.66
2023-02-04T03:47:00.248Z,98108.52
2023-02-04T03:50:14.531Z,98108.46
2023-02-04T03:53:26.545Z,98127.47
2023-02-04T03:56:38.535Z,98144.44
2023-02-04T03:59:50.645Z,98146.67
2023-02-04T04:03:02.890Z,98159.23
2023-02-04T04:06:15.232Z,98164.91
2023-02-04T04:09:27.329Z,98169.95
2023-02-04T04:12:39.367Z,98194.88
2023-02-04T04:15:51.823Z,98195.83
2023-02-04T04:19:03.810Z,98209.04
2023-02-04T04:22:15.772Z,98218.78
2023-02-04T04:25:27.911Z,98237.83
2023-02-04T04:28:39.996Z,98248.49
2023-02-04T04:31:52.128Z,98278.88
2023-02-04T04:35:04.296Z,98293.17
2023-02-04T04:38:24.709Z,98314.84
2023-02-04T04:41:47.619Z,98336.19
2023-02-04T04:44:59.611Z,98351.25
2023-02-04T04:48:12.201Z,98375.36
2023-02-04T04:51:24.195Z,98391.52
2023-02-04T04:54:36.238Z,98406.89
2023-02-04T04:57:48.793Z,98439.17
2023-02-04T05:01:00.685Z,98452.20
2023-02-04T05:07:13.025Z,98487.80
2023-02-04T05:10:26.163Z,98478.48
2023-02-04T05:13:38.343Z,98541.49
2023-02-04T05:16:50.244Z,98553.36
2023-02-04T05:20:02.104Z,98583.59
2023-02-04T05:23:14.218Z,98599.27
2023-02-04T05:26:30.546Z,98634.29
2023-02-04T05:29:41.291Z,98647.89
2023-02-04T05:32:53.591Z,98674.31
2023-02-04T05:36:06.010Z,98680.30
2023-02-04T05:39:17.932Z,98700.78
2023-02-04T05:42:29.909Z,98717.78
2023-02-04T05:45:41.839Z,98738.42
2023-02-04T05:48:54.038Z,98758.61
2023-02-04T05:52:05.970Z,98786.84
2023-02-04T05:55:19.298Z,98793.66
2023-02-04T05:58:33.673Z,98824.57
2023-02-04T06:01:46.120Z,98842.14
2023-02-04T06:04:58.324Z,98858.08
2023-02-04T06:08:11.237Z,98882.53
2023-02-04T06:11:23.251Z,98892.07
2023-02-04T06:14:35.447Z,98918.55
2023-02-04T06:17:49.210Z,98932.38
2023-02-04T06:21:03.350Z,98954.80
2023-02-04T06:24:15.740Z,98981.88
2023-02-04T06:27:27.754Z,98995.63
2023-02-04T06:30:39.889Z,99008.52
2023-02-04T06:33:51.941Z,99020.77
2023-02-04T06:37:03.864Z,99046.08
2023-02-04T06:40:18.731Z,99071.89
2023-02-04T06:43:30.935Z,99086.91
2023-02-04T06:46:42.778Z,99110.58
2023-02-04T06:49:54.737Z,99122.64
2023-02-04T06:53:06.703Z,99152.38
2023-02-04T06:56:18.842Z,99169.98
2023-02-04T06:59:32.769Z,99184.91
2023-02-04T07:02:46.266Z,99199.53
2023-02-04T07:05:58.822Z,99219.02
2023-02-04T07:09:11.068Z,99247.06
2023-02-04T07:12:23.319Z,99250.45
2023-02-04T07:15:35.658Z,99260.50
2023-02-04T07:18:47.982Z,99280.33
2023-02-04T07:21:59.982Z,99296.77
2023-02-04T07:25:15.051Z,99312.64
2023-02-04T07:28:28.081Z,99326.47
2023-02-04T07:31:40.264Z,99347.92
2023-02-04T07:34:54.838Z,99356.61
2023-02-04T07:38:06.767Z,99374.25
2023-02-04T07:41:19.151Z,99378.69
2023-02-04T07:44:31.616Z,99409.83
2023-02-04T07:47:43.629Z,99412.56
2023-02-04T07:50:55.669Z,99418.91
2023-02-04T07:54:08.083Z,99443.25
2023-02-04T07:57:20.556Z,99446.65
2023-02-04T08:00:33.528Z,99474.48
2023-02-04T08:03:46.137Z,99486.45
2023-02-04T08:06:58.340Z,99490.55
2023-02-04T08:10:12.079Z,99496.55
2023-02-04T08:13:25.616Z,99499.73
2023-02-04T08:16:37.935Z,99502.10
2023-02-04T08:19:50.178Z,99510.59
2023-02-04T08:23:02.918Z,99531.31
2023-02-04T08:26:16.435Z,99542.94
2023-02-04T08:29:29.836Z,99549.98
2023-02-04T08:32:42.044Z,99550.67
2023-02-04T08:35:54.088Z,99560.89
2023-02-04T08:39:06.546Z,99571.03
2023-02-04T08:42:18.754Z,99578.57
2023-02-04T08:45:31.126Z,99586.34
2023-02-04T08:48:43.875Z,99593.14
2023-02-04T08:51:56.057Z,99597.80
2023-02-04T08:55:08.752Z,99611.44
2023-02-04T08:58:20.766Z,99617.09
2023-02-04T09:01:33.240Z,99614.34
2023-02-04T09:04:45.388Z,99623.69
2023-02-04T09:07:57.265Z,99633.27
2023-02-04T09:11:10.885Z,99639.81
2023-02-04T09:14:22.983Z,99654.47
2023-02-04T09:17:35.881Z,99663.11
2023-02-04T09:20:48.357Z,99675.99
2023-02-04T09:24:00.567Z,99684.11
2023-02-04T09:27:12.612Z,99670.14
2023-02-04T09:30:25.429Z,99683.38
2023-02-04T09:33:38.475Z,99679.91
2023-02-04T09:36:50.815Z,99689.08
2023-02-04T09:40:02.775Z,99693.41
2023-02-04T09:43:19.894Z,99696.09
2023-02-04T09:46:34.116Z,99719.02
2023-02-04T09:49:46.954Z,99720.47
2023-02-04T09:53:03.169Z,99727.89
2023-02-04T09:56:19.370Z,99725.27
2023-02-04T09:59:33.460Z,99734.34
2023-02-04T10:02:45.843Z,99734.97
2023-02-04T10:05:59.713Z,99735.13
2023-02-04T10:09:13.339Z,99743.30
2023-02-04T10:12:25.883Z,99758.17
2023-02-04T10:15:39.225Z,99773.19
2023-02-04T10:18:52.625Z,99776.84
2023-02-04T10:22:05.596Z,99770.82
2023-02-04T10:25:22.672Z,99777.25
2023-02-04T10:28:40.805Z,99781.77
